createdAt,value
2019-05-05T00:02:49.286Z,139.92
2019-05-05T00:05:35.350Z,139.92
2019-05-05T00:08:04.933Z,140.97
2019-05-05T00:11:04.939Z,140.55
2019-05-05T00:13:41.671Z,139.68
2019-05-05T00:16:31.296Z,139.82
2019-05-05T00:18:58.775Z,139.45
2019-05-05T00:21:25.806Z,140.73
2019-05-05T00:23:52.835Z,140.35
2019-05-05T00:26:20.332Z,140.35
2019-05-05T00:28:47.396Z,140.90
2019-05-05T00:31:15.594Z,140.70
2019-05-05T00:33:44.723Z,141.05
2019-05-05T00:36:11.741Z,142.75
2019-05-05T00:38:38.760Z,141.10
2019-05-05T00:41:06.087Z,141.88
2019-05-05T00:43:34.505Z,142.68
2019-05-05T00:46:07.436Z,140.52
2019-05-05T00:48:44.450Z,141.20
2019-05-05T00:51:11.704Z,141.00
2019-05-05T00:53:38.768Z,141.28
2019-05-05T00:56:05.838Z,141.07
2019-05-05T00:58:35.347Z,140.25
2019-05-05T01:01:11.083Z,141.55
2019-05-05T01:03:38.178Z,140.12
2019-05-05T01:06:15.117Z,141.10
2019-05-05T01:08:44.433Z,141.95
2019-05-05T01:11:14.495Z,140.32
2019-05-05T01:13:41.621Z,141.65
2019-05-05T01:16:08.655Z,142.03
2019-05-05T01:18:35.696Z,141.32
2019-05-05T01:21:04.534Z,141.25
2019-05-05T01:23:31.870Z,143.13
2019-05-05T01:25:58.902Z,141.45
2019-05-05T01:28:25.950Z,142.20
2019-05-05T01:30:56.257Z,142.35
2019-05-05T01:33:30.063Z,140.75
2019-05-05T01:35:57.105Z,141.20
2019-05-05T01:38:31.871Z,142.68
2019-05-05T01:41:07.684Z,140.30
2019-05-05T01:43:34.866Z,141.18
2019-05-05T01:46:01.907Z,141.90
2019-05-05T01:48:28.967Z,142.53
2019-05-05T01:50:56.002Z,141.40
2019-05-05T01:53:24.488Z,140.25
2019-05-05T01:55:54.289Z,142.32
2019-05-05T01:58:21.813Z,142.15
2019-05-05T02:00:50.001Z,140.15
2019-05-05T02:03:17.032Z,140.47
2019-05-05T02:05:45.289Z,143.65
2019-05-05T02:08:12.395Z,142.72
2019-05-05T02:10:39.459Z,143.55
2019-05-05T02:13:06.643Z,142.20
2019-05-05T02:15:34.436Z,141.57
2019-05-05T02:18:01.575Z,141.50
2019-05-05T02:20:54.361Z,142.35
2019-05-05T02:23:21.838Z,139.05
2019-05-05T02:25:48.876Z,139.32
2019-05-05T02:28:16.021Z,139.45
2019-05-05T02:31:05.407Z,139.52
2019-05-05T02:33:31.840Z,139.30
2019-05-05T02:35:58.872Z,140.22
2019-05-05T02:38:26.440Z,140.55
2019-05-05T02:40:55.029Z,142.80
2019-05-05T02:43:27.439Z,141.55
2019-05-05T02:46:25.300Z,142.62
2019-05-05T02:48:56.210Z,140.57
2019-05-05T02:51:26.136Z,142.55
2019-05-05T02:53:55.736Z,142.33
2019-05-05T02:56:28.920Z,143.23
2019-05-05T02:59:00.538Z,139.17
2019-05-05T03:01:44.783Z,141.20
2019-05-05T03:04:14.117Z,140.40
2019-05-05T03:06:45.825Z,139.80
2019-05-05T03:09:14.761Z,140.87
2019-05-05T03:11:45.055Z,139.40
2019-05-05T03:14:14.314Z,139.80
2019-05-05T03:16:43.585Z,140.22
2019-05-05T03:19:11.148Z,139.28
2019-05-05T03:21:38.712Z,141.77
2019-05-05T03:24:07.060Z,142.70
2019-05-05T03:26:35.102Z,141.22
2019-05-05T03:29:04.763Z,141.57
2019-05-05T03:31:34.937Z,141.85
2019-05-05T03:34:01.450Z,139.77
2019-05-05T03:36:29.382Z,142.10
2019-05-05T03:38:56.410Z,139.80
2019-05-05T03:41:35.012Z,139.77
2019-05-05T03:44:09.031Z,139.62
2019-05-05T03:46:36.834Z,140.23
2019-05-05T03:49:05.522Z,139.10
2019-05-05T03:51:34.502Z,141.37
2019-05-05T03:54:04.182Z,140.60
2019-05-05T03:56:31.858Z,139.67
2019-05-05T03:59:01.593Z,139.50
2019-05-05T04:01:37.581Z,140.83
2019-05-05T04:04:24.431Z,140.00
2019-05-05T04:06:54.092Z,140.18
2019-05-05T04:09:24.122Z,140.53
2019-05-05T04:11:50.964Z,142.13
2019-05-05T04:14:18.692Z,139.40
2019-05-05T04:16:55.472Z,141.37
2019-05-05T04:19:23.751Z,140.67
2019-05-05T04:21:50.770Z,140.60
2019-05-05T04:24:17.815Z,140.13
2019-05-05T04:26:45.182Z,139.93
2019-05-05T04:29:13.952Z,139.35
2019-05-05T04:31:43.516Z,140.12
2019-05-05T04:34:10.702Z,140.45
2019-05-05T04:36:37.731Z,139.77
2019-05-05T04:39:06.049Z,141.03
2019-05-05T04:41:34.649Z,141.77
2019-05-05T04:44:03.897Z,140.00
2019-05-05T04:46:30.702Z,141.95
2019-05-05T04:49:20.445Z,141.12
2019-05-05T04:51:50.428Z,142.77
2019-05-05T04:54:25.251Z,141.55
2019-05-05T04:56:53.967Z,143.15
2019-05-05T04:59:23.395Z,145.25
2019-05-05T05:01:54.597Z,146.40
2019-05-05T05:04:37.415Z,144.25
2019-05-05T05:07:04.818Z,145.25
2019-05-05T05:09:34.053Z,147.78
2019-05-05T05:12:01.159Z,145.35
2019-05-05T05:14:28.365Z,148.15
2019-05-05T05:16:56.992Z,149.80
2019-05-05T05:19:24.316Z,149.30
2019-05-05T05:21:59.328Z,148.35
2019-05-05T05:24:20.580Z,149.77
2019-05-05T05:26:47.749Z,151.93
2019-05-05T05:29:15.226Z,149.57
2019-05-05T05:31:44.305Z,146.53
2019-05-05T05:34:11.791Z,150.62
2019-05-05T05:36:38.831Z,148.97
2019-05-05T05:39:13.979Z,149.50
2019-05-05T05:41:49.888Z,148.93
2019-05-05T05:44:36.827Z,147.10
2019-05-05T05:47:15.250Z,148.45
2019-05-05T05:49:45.747Z,150.72
2019-05-05T05:52:18.977Z,150.15
2019-05-05T05:54:44.239Z,155.67
2019-05-05T05:57:13.590Z,146.32
2019-05-05T05:59:40.812Z,149.25
2019-05-05T06:02:11.791Z,152.53
2019-05-05T06:04:38.706Z,157.18
2019-05-05T06:07:05.770Z,155.12
2019-05-05T06:09:34.506Z,150.87
2019-05-05T06:12:03.584Z,154.03
2019-05-05T06:14:34.032Z,149.27
2019-05-05T06:17:01.430Z,150.00
2019-05-05T06:19:28.536Z,150.85
2019-05-05T06:21:56.033Z,149.20
2019-05-05T06:24:24.043Z,152.32
2019-05-05T06:26:51.191Z,148.97
2019-05-05T06:29:18.604Z,148.22
2019-05-05T06:31:45.701Z,149.65
2019-05-05T06:34:14.034Z,148.65
2019-05-05T06:36:44.304Z,147.75
2019-05-05T06:39:11.308Z,147.43
2019-05-05T06:41:57.940Z,150.60
2019-05-05T06:44:33.790Z,151.50
2019-05-05T06:47:04.743Z,147.68
2019-05-05T06:49:34.522Z,150.87
2019-05-05T06:52:04.041Z,151.68
2019-05-05T06:54:34.640Z,150.30
2019-05-05T06:57:01.475Z,152.85
2019-05-05T06:59:28.513Z,151.78
2019-05-05T07:01:55.567Z,152.53
2019-05-05T07:04:24.587Z,150.22
2019-05-05T07:06:56.719Z,150.12
2019-05-05T07:09:20.595Z,151.42
2019-05-05T07:11:47.700Z,153.75
2019-05-05T07:14:14.741Z,154.23
2019-05-05T07:16:43.712Z,158.50
2019-05-05T07:19:10.759Z,157.00
2019-05-05T07:21:37.906Z,155.93
2019-05-05T07:24:04.981Z,157.78
2019-05-05T07:26:34.000Z,157.93
2019-05-05T07:29:01.048Z,155.20
2019-05-05T07:31:28.117Z,154.87
2019-05-05T07:33:56.389Z,153.53
2019-05-05T07:36:36.149Z,153.82
2019-05-05T07:39:05.636Z,153.90
2019-05-05T07:41:34.060Z,152.57
2019-05-05T07:44:04.650Z,152.07
2019-05-05T07:46:31.768Z,152.38
2019-05-05T07:48:58.841Z,151.05
2019-05-05T07:51:25.915Z,153.70
2019-05-05T07:53:54.653Z,155.10
2019-05-05T07:56:23.756Z,154.40
2019-05-05T07:58:50.972Z,156.78
2019-05-05T08:01:18.216Z,156.52
2019-05-05T08:03:45.266Z,158.32
2019-05-05T08:06:14.325Z,159.75
2019-05-05T08:08:41.490Z,158.22
2019-05-05T08:11:08.556Z,157.70
2019-05-05T08:13:35.623Z,154.87
2019-05-05T08:16:08.037Z,154.63
2019-05-05T08:18:51.269Z,154.12
2019-05-05T08:21:18.375Z,154.65
2019-05-05T08:24:09.048Z,153.12
2019-05-05T08:27:04.685Z,154.55
2019-05-05T08:29:38.039Z,151.63
2019-05-05T08:32:35.654Z,152.72
2019-05-05T08:35:04.332Z,150.42
2019-05-05T08:37:31.420Z,152.85
2019-05-05T08:39:58.546Z,151.93
2019-05-05T08:42:25.669Z,153.25
2019-05-05T08:44:53.870Z,155.50
2019-05-05T08:47:21.094Z,154.18
2019-05-05T08:49:48.135Z,153.23
2019-05-05T08:52:15.253Z,154.18
2019-05-05T08:54:44.749Z,150.68
2019-05-05T08:57:12.100Z,149.30
2019-05-05T08:59:39.331Z,149.87
2019-05-05T09:02:08.248Z,149.95
2019-05-05T09:04:35.647Z,150.12
2019-05-05T09:07:05.222Z,148.35
2019-05-05T09:09:33.523Z,149.30
2019-05-05T09:12:01.163Z,151.18
2019-05-05T09:14:28.317Z,150.10
2019-05-05T09:16:56.777Z,152.12
2019-05-05T09:19:24.166Z,152.85
2019-05-05T09:21:51.242Z,150.93
2019-05-05T09:24:28.214Z,151.85
2019-05-05T09:27:05.417Z,152.05
2019-05-05T09:29:43.802Z,154.03
2019-05-05T09:32:13.873Z,152.72
2019-05-05T09:34:43.625Z,150.70
2019-05-05T09:37:14.190Z,150.78
2019-05-05T09:39:43.466Z,150.93
2019-05-05T09:42:10.615Z,151.60
2019-05-05T09:44:37.896Z,155.03
2019-05-05T09:47:05.233Z,153.12
2019-05-05T09:49:33.851Z,155.30
2019-05-05T09:52:04.974Z,153.05
2019-05-05T09:54:34.423Z,152.00
2019-05-05T09:57:01.680Z,156.25
2019-05-05T09:59:28.931Z,151.20
2019-05-05T10:01:56.167Z,151.63
2019-05-05T10:04:26.161Z,150.40
2019-05-05T10:06:53.358Z,150.40
2019-05-05T10:09:20.462Z,149.87
2019-05-05T10:11:49.173Z,152.30
2019-05-05T10:14:16.282Z,152.40
2019-05-05T10:16:43.455Z,156.63
2019-05-05T10:19:10.784Z,157.95
2019-05-05T10:21:44.609Z,154.80
2019-05-05T10:24:30.848Z,157.40
2019-05-05T10:26:58.740Z,156.40
2019-05-05T10:29:25.953Z,152.68
2019-05-05T10:31:53.949Z,151.37
2019-05-05T10:34:21.091Z,152.35
2019-05-05T10:36:48.178Z,150.60
2019-05-05T10:39:24.163Z,150.20
2019-05-05T10:41:53.413Z,150.27
2019-05-05T10:44:20.569Z,148.93
2019-05-05T10:46:47.646Z,152.20
2019-05-05T10:49:15.922Z,151.18
2019-05-05T10:51:43.956Z,150.38
2019-05-05T10:54:11.406Z,151.30
2019-05-05T10:56:38.469Z,156.28
2019-05-05T10:59:07.495Z,152.10
2019-05-05T11:01:40.725Z,153.57
2019-05-05T11:04:07.774Z,154.53
2019-05-05T11:06:35.081Z,155.60
2019-05-05T11:09:06.476Z,156.20
2019-05-05T11:11:34.377Z,154.47
2019-05-05T11:14:03.894Z,154.70
2019-05-05T11:16:32.190Z,158.68
2019-05-05T11:18:59.567Z,156.35
2019-05-05T11:21:26.743Z,156.82
2019-05-05T11:23:54.025Z,155.30
2019-05-05T11:26:21.455Z,153.57
2019-05-05T11:28:48.549Z,152.62
2019-05-05T11:31:16.981Z,152.90
2019-05-05T11:34:06.517Z,155.03
2019-05-05T11:36:41.409Z,153.07
2019-05-05T11:39:08.568Z,151.80
2019-05-05T11:41:36.906Z,154.18
2019-05-05T11:44:05.873Z,151.82
2019-05-05T11:46:33.949Z,151.68
2019-05-05T11:49:01.295Z,152.75
2019-05-05T11:51:28.435Z,151.27
2019-05-05T11:53:58.955Z,154.00
2019-05-05T11:56:26.073Z,153.93
2019-05-05T11:58:55.307Z,154.60
2019-05-05T12:01:24.338Z,153.18
2019-05-05T12:03:54.446Z,152.87
2019-05-05T12:06:21.504Z,156.35
2019-05-05T12:08:50.178Z,155.87
2019-05-05T12:11:17.591Z,156.30
2019-05-05T12:13:44.780Z,155.78
2019-05-05T12:16:15.152Z,157.10
2019-05-05T12:18:44.213Z,156.37
2019-05-05T12:21:11.455Z,154.70
2019-05-05T12:23:38.803Z,153.87
2019-05-05T12:26:26.079Z,155.00
2019-05-05T12:29:04.129Z,153.30
2019-05-05T12:31:34.141Z,153.78
2019-05-05T12:34:03.912Z,151.27
2019-05-05T12:36:34.171Z,152.47
2019-05-05T12:39:06.341Z,152.38
2019-05-05T12:41:34.981Z,153.32
2019-05-05T12:44:03.376Z,152.47
2019-05-05T12:46:53.897Z,156.12
2019-05-05T12:49:24.806Z,156.00
2019-05-05T12:51:50.162Z,154.68
2019-05-05T12:54:17.310Z,154.82
2019-05-05T12:56:44.716Z,155.78
2019-05-05T12:59:18.438Z,155.48
2019-05-05T13:01:45.524Z,152.57
2019-05-05T13:04:14.140Z,153.10
2019-05-05T13:06:41.517Z,152.27
2019-05-05T13:09:09.855Z,151.50
2019-05-05T13:11:38.980Z,152.75
2019-05-05T13:14:06.041Z,153.50
2019-05-05T13:16:33.322Z,155.90
2019-05-05T13:19:04.367Z,152.30
2019-05-05T13:22:09.675Z,154.93
2019-05-05T13:25:08.842Z,154.90
2019-05-05T13:27:38.386Z,156.18
2019-05-05T13:30:08.091Z,155.37
2019-05-05T13:32:35.460Z,153.82
2019-05-05T13:35:04.050Z,152.72
2019-05-05T13:37:33.802Z,152.60
2019-05-05T13:40:01.218Z,151.63
2019-05-05T13:42:28.621Z,151.05
2019-05-05T13:45:08.038Z,152.05
2019-05-05T13:47:38.408Z,152.43
2019-05-05T13:50:14.154Z,151.95
2019-05-05T13:52:41.759Z,151.65
2019-05-05T13:55:13.874Z,152.05
2019-05-05T13:57:44.464Z,151.97
2019-05-05T14:00:15.444Z,151.50
2019-05-05T14:02:43.920Z,152.78
2019-05-05T14:05:13.402Z,153.35
2019-05-05T14:07:40.819Z,153.90
2019-05-05T14:10:08.948Z,153.45
2019-05-05T14:12:36.346Z,154.05
2019-05-05T14:15:04.551Z,152.95
2019-05-05T14:17:32.864Z,154.70
2019-05-05T14:20:09.319Z,153.40
2019-05-05T14:22:31.342Z,152.55
2019-05-05T14:25:05.637Z,153.23
2019-05-05T14:27:33.216Z,155.57
2019-05-05T14:30:18.951Z,156.05
2019-05-05T14:32:46.486Z,153.10
2019-05-05T14:35:29.215Z,155.05
2019-05-05T14:37:59.815Z,156.25
2019-05-05T14:40:27.012Z,154.50
2019-05-05T14:42:55.139Z,156.82
2019-05-05T14:45:23.540Z,156.57
2019-05-05T14:47:50.905Z,154.80
2019-05-05T14:50:20.187Z,156.15
2019-05-05T14:52:47.478Z,155.78
2019-05-05T14:55:14.672Z,154.85
2019-05-05T14:57:43.962Z,156.20
2019-05-05T15:00:16.994Z,154.75
2019-05-05T15:02:49.196Z,155.93
2019-05-05T15:05:54.803Z,153.97
2019-05-05T15:08:35.550Z,156.18
2019-05-05T15:11:06.609Z,155.30
2019-05-05T15:13:34.852Z,154.47
2019-05-05T15:16:04.001Z,154.23
2019-05-05T15:18:31.776Z,154.93
2019-05-05T15:20:58.922Z,153.65
2019-05-05T15:23:27.921Z,154.90
2019-05-05T15:25:55.153Z,159.32
2019-05-05T15:28:24.345Z,155.97
2019-05-05T15:30:54.933Z,162.92
2019-05-05T15:33:26.251Z,164.75
2019-05-05T15:35:58.843Z,157.78
2019-05-05T15:38:28.450Z,154.05
2019-05-05T15:40:56.739Z,155.15
2019-05-05T15:43:24.502Z,156.22
2019-05-05T15:45:54.789Z,156.60
2019-05-05T15:48:22.251Z,155.15
2019-05-05T15:50:50.655Z,156.35
2019-05-05T15:53:23.529Z,155.93
2019-05-05T15:55:54.028Z,155.67
2019-05-05T15:58:25.282Z,152.75
2019-05-05T16:00:56.998Z,154.55
2019-05-05T16:03:26.514Z,154.40
2019-05-05T16:05:56.015Z,154.47
2019-05-05T16:08:25.213Z,154.27
2019-05-05T16:10:54.748Z,156.55
2019-05-05T16:13:22.172Z,154.23
2019-05-05T16:16:08.966Z,155.00
2019-05-05T16:19:05.618Z,154.00
2019-05-05T16:21:39.629Z,152.78
2019-05-05T16:24:14.003Z,152.87
2019-05-05T16:26:41.239Z,153.35
2019-05-05T16:29:10.666Z,152.43
2019-05-05T16:31:39.841Z,152.43
2019-05-05T16:34:09.084Z,156.18
2019-05-05T16:36:36.646Z,154.95
2019-05-05T16:39:10.110Z,153.62
2019-05-05T16:41:40.893Z,155.37
2019-05-05T16:44:15.850Z,153.57
2019-05-05T16:46:43.501Z,154.35
2019-05-05T16:49:10.724Z,154.90
2019-05-05T16:51:43.922Z,152.38
2019-05-05T16:54:17.427Z,154.42
2019-05-05T16:56:48.424Z,151.70
2019-05-05T16:59:16.675Z,153.80
2019-05-05T17:01:46.566Z,151.63
2019-05-05T17:04:14.245Z,154.82
2019-05-05T17:06:41.396Z,152.82
2019-05-05T17:09:08.497Z,152.60
2019-05-05T17:11:37.750Z,151.00
2019-05-05T17:14:33.839Z,152.12
2019-05-05T17:17:26.778Z,153.25
2019-05-05T17:20:08.665Z,153.20
2019-05-05T17:22:44.601Z,157.03
2019-05-05T17:25:13.940Z,154.68
2019-05-05T17:27:54.414Z,155.78
2019-05-05T17:30:24.501Z,150.30
2019-05-05T17:32:51.506Z,151.57
2019-05-05T17:35:18.744Z,152.50
2019-05-05T17:37:48.676Z,152.22
2019-05-05T17:40:33.380Z,152.27
2019-05-05T17:43:24.976Z,150.75
2019-05-05T17:45:57.187Z,151.12
2019-05-05T17:48:31.597Z,150.30
2019-05-05T17:51:23.472Z,152.02
2019-05-05T17:54:01.345Z,148.93
2019-05-05T17:56:31.176Z,149.65
2019-05-05T17:58:58.530Z,150.75
2019-05-05T18:01:25.691Z,150.18
2019-05-05T18:03:54.481Z,151.47
2019-05-05T18:06:41.323Z,150.22
2019-05-05T18:09:14.263Z,151.85
2019-05-05T18:12:10.063Z,148.22
2019-05-05T18:14:40.534Z,148.57
2019-05-05T18:17:08.829Z,148.05
2019-05-05T18:19:36.117Z,147.70
2019-05-05T18:22:05.459Z,149.35
2019-05-05T18:24:33.711Z,149.18
2019-05-05T18:27:04.523Z,148.53
2019-05-05T18:29:33.887Z,147.55
2019-05-05T18:32:04.203Z,149.53
2019-05-05T18:34:30.996Z,152.32
2019-05-05T18:37:00.599Z,152.87
2019-05-05T18:39:29.828Z,150.40
2019-05-05T18:42:11.245Z,149.65
2019-05-05T18:44:45.377Z,147.55
2019-05-05T18:47:20.331Z,148.22
2019-05-05T18:49:47.596Z,149.70
2019-05-05T18:52:17.120Z,148.82
2019-05-05T18:57:11.565Z,147.47
2019-05-05T18:59:40.361Z,146.75
2019-05-05T19:02:26.219Z,148.02
2019-05-05T19:05:27.008Z,148.40
2019-05-05T19:07:57.466Z,149.53
2019-05-05T19:10:24.896Z,148.10
2019-05-05T19:12:54.095Z,147.95
2019-05-05T19:15:21.478Z,147.17
2019-05-05T19:17:48.908Z,148.28
2019-05-05T19:20:35.220Z,148.90
2019-05-05T19:23:05.746Z,149.30
2019-05-05T19:25:32.286Z,151.95
2019-05-05T19:27:59.972Z,150.70
2019-05-05T19:30:27.163Z,152.02
2019-05-05T19:32:54.334Z,150.50
2019-05-05T19:35:43.661Z,152.95
2019-05-05T19:38:02.228Z,149.95
2019-05-05T19:40:31.042Z,150.32
2019-05-05T19:42:59.983Z,152.25
2019-05-05T19:45:27.189Z,151.30
2019-05-05T19:47:54.501Z,153.70
2019-05-05T19:50:34.076Z,151.37
2019-05-05T19:53:04.406Z,152.27
2019-05-05T19:55:33.813Z,151.65
2019-05-05T19:58:03.452Z,149.68
2019-05-05T20:00:30.304Z,150.42
2019-05-05T20:03:04.599Z,150.07
2019-05-05T20:05:28.979Z,149.80
2019-05-05T20:07:59.023Z,147.85
2019-05-05T20:10:26.228Z,147.15
2019-05-05T20:12:55.280Z,147.82
2019-05-05T20:15:37.335Z,146.28
2019-05-05T20:18:05.922Z,146.93
2019-05-05T20:20:37.156Z,148.90
2019-05-05T20:23:06.049Z,147.60
2019-05-05T20:25:35.083Z,149.87
2019-05-05T20:28:06.426Z,148.40
2019-05-05T20:30:34.322Z,148.07
2019-05-05T20:33:08.580Z,148.13
2019-05-05T20:35:42.522Z,149.65
2019-05-05T20:38:15.136Z,149.20
2019-05-05T20:41:05.563Z,149.93
2019-05-05T20:43:34.149Z,146.95
2019-05-05T20:46:01.727Z,148.68
2019-05-05T20:48:28.908Z,149.53
2019-05-05T20:50:56.141Z,147.90
2019-05-05T20:53:24.625Z,150.60
2019-05-05T20:55:54.449Z,149.77
2019-05-05T20:58:23.840Z,150.87
2019-05-05T21:00:50.768Z,149.97
2019-05-05T21:03:18.103Z,150.78
2019-05-05T21:05:45.201Z,150.68
2019-05-05T21:08:14.137Z,151.22
2019-05-05T21:10:41.409Z,151.30
2019-05-05T21:13:08.683Z,149.97
2019-05-05T21:15:35.896Z,150.72
2019-05-05T21:18:04.892Z,149.70
2019-05-05T21:20:32.099Z,148.32
2019-05-05T21:23:14.418Z,148.75
2019-05-05T21:25:44.811Z,148.30
2019-05-05T21:28:14.736Z,148.70
2019-05-05T21:30:44.298Z,149.68
2019-05-05T21:33:13.239Z,148.45
2019-05-05T21:35:40.414Z,148.53
2019-05-05T21:38:07.487Z,149.12
2019-05-05T21:40:34.853Z,149.35
2019-05-05T21:43:02.047Z,150.27
2019-05-05T21:45:29.141Z,151.95
2019-05-05T21:47:56.385Z,148.65
2019-05-05T21:50:29.737Z,148.38
2019-05-05T21:53:04.599Z,148.02
2019-05-05T21:55:40.278Z,148.47
2019-05-05T21:58:13.688Z,148.40
2019-05-05T22:00:59.127Z,147.45
2019-05-05T22:03:35.020Z,154.63
2019-05-05T22:06:14.418Z,149.97
2019-05-05T22:08:43.361Z,145.43
2019-05-05T22:11:14.823Z,149.47
2019-05-05T22:13:44.246Z,146.80
2019-05-05T22:16:13.724Z,147.98
2019-05-05T22:18:40.998Z,148.90
2019-05-05T22:21:35.734Z,149.18
2019-05-05T22:24:17.489Z,148.93
2019-05-05T22:26:45.710Z,149.30
2019-05-05T22:29:14.057Z,146.95
2019-05-05T22:31:42.022Z,148.87
2019-05-05T22:34:09.102Z,153.57
2019-05-05T22:36:36.589Z,148.17
2019-05-05T22:39:05.954Z,145.92
2019-05-05T22:41:35.219Z,145.72
2019-05-05T22:44:04.340Z,149.40
2019-05-05T22:46:34.736Z,147.82
2019-05-05T22:49:03.921Z,146.77
2019-05-05T22:51:33.807Z,148.65
2019-05-05T22:54:03.989Z,147.13
2019-05-05T22:56:33.950Z,148.82
2019-05-05T22:59:01.098Z,147.85
2019-05-05T23:01:28.257Z,145.32
2019-05-05T23:04:17.487Z,146.98
2019-05-05T23:06:46.219Z,148.70
2019-05-05T23:09:14.748Z,150.10
2019-05-05T23:11:44.000Z,147.47
2019-05-05T23:14:37.045Z,145.77
2019-05-05T23:17:26.610Z,148.85
2019-05-05T23:20:00.207Z,147.02
2019-05-05T23:22:36.323Z,147.05
2019-05-05T23:25:10.599Z,147.78
2019-05-05T23:27:47.095Z,146.57
2019-05-05T23:30:15.947Z,148.20
2019-05-05T23:32:43.947Z,146.75
2019-05-05T23:35:11.421Z,148.07
2019-05-05T23:37:38.470Z,148.82
2019-05-05T23:40:09.486Z,149.20
2019-05-05T23:42:36.570Z,148.95
2019-05-05T23:45:05.449Z,148.05
2019-05-05T23:47:34.555Z,148.75
2019-05-05T23:50:01.595Z,148.22
2019-05-05T23:52:28.654Z,148.02
2019-05-05T23:54:55.703Z,149.68
2019-05-05T23:57:24.555Z,148.45
2019-05-05T23:59:53.697Z,148.80
